Time;durP1;ratioP1;P1;durP2;ratioP2;P2;SDS_P1;SDS_P2;PMS_P1;PMS_P2;Temp;Humidity;BMP_temperature;BMP_pressure;BME280_temperature;BME280_humidity;BME280_pressure;Samples;Min_cycle;Max_cycle;Signal;HPM_P1;HPM_P2
2022/07/06 00:01:05;;;;;;;2.10;1.30;;;;;;;;;;5018933;28;20316;-83
2022/07/06 00:03:32;;;;;;;3.03;1.45;;;;;;;;;;5018306;28;20239;-83
2022/07/06 00:05:59;;;;;;;1.52;1.42;;;;;;;;;;5017370;28;20219;-83
2022/07/06 00:08:26;;;;;;;3.40;1.58;;;;;;;;;;5017535;28;20714;-83
2022/07/06 00:10:53;;;;;;;3.90;2.10;;;;;;;;;;5018356;28;20214;-83
2022/07/06 00:13:21;;;;;;;2.15;1.70;;;;;;;;;;5018066;28;20227;-82
2022/07/06 00:15:48;;;;;;;1.83;1.23;;;;;;;;;;5018901;28;20230;-82
2022/07/06 00:18:15;;;;;;;1.85;1.45;;;;;;;;;;5018278;28;20239;-82
2022/07/06 00:20:42;;;;;;;1.25;1.15;;;;;;;;;;5020136;28;20234;-83
2022/07/06 00:23:09;;;;;;;1.55;1.45;;;;;;;;;;5019134;28;20224;-82
2022/07/06 00:25:36;;;;;;;2.17;1.55;;;;;;;;;;5020808;28;20218;-83
2022/07/06 00:28:04;;;;;;;1.50;1.40;;;;;;;;;;5019217;28;20211;-83
2022/07/06 00:30:32;;;;;;;4.63;1.60;;;;;;;;;;5019974;28;20208;-83
2022/07/06 00:32:59;;;;;;;2.95;1.42;;;;;;;;;;5020191;28;20210;-82
2022/07/06 00:35:26;;;;;;;3.42;1.40;;;;;;;;;;5018382;28;20231;-83
2022/07/06 00:37:53;;;;;;;1.58;1.48;;;;;;;;;;5019392;28;20208;-82
2022/07/06 00:40:20;;;;;;;2.88;1.45;;;;;;;;;;5018724;28;20246;-82
2022/07/06 00:42:48;;;;;;;2.10;1.20;;;;;;;;;;5019901;28;20208;-83
2022/07/06 00:45:16;;;;;;;1.40;1.30;;;;;;;;;;5019195;28;20722;-82
2022/07/06 00:47:44;;;;;;;1.73;1.42;;;;;;;;;;5019536;28;20218;-82
2022/07/06 00:50:17;;;;;;;1.40;1.30;;;;;;;;;;5019451;28;20707;-83
2022/07/06 00:52:45;;;;;;;2.58;1.42;;;;;;;;;;5027266;28;20207;-83
2022/07/06 00:55:13;;;;;;;3.15;1.25;;;;;;;;;;5015967;28;20625;-83
2022/07/06 00:57:40;;;;;;;1.60;1.50;;;;;;;;;;5015664;28;20214;-82
2022/07/06 01:00:09;;;;;;;2.05;1.45;;;;;;;;;;5015417;28;20239;-83
2022/07/06 01:02:36;;;;;;;2.97;1.40;;;;;;;;;;5016681;28;20207;-82
2022/07/06 01:05:06;;;;;;;2.15;1.65;;;;;;;;;;5013481;28;20239;-83
2022/07/06 01:07:34;;;;;;;2.13;1.92;;;;;;;;;;5015467;28;20208;-83
2022/07/06 01:10:01;;;;;;;1.83;1.67;;;;;;;;;;5015947;28;20722;-83
2022/07/06 01:12:28;;;;;;;2.67;1.70;;;;;;;;;;5006446;28;20613;-82
2022/07/06 01:14:55;;;;;;;4.13;1.48;;;;;;;;;;4996526;28;20818;-82
2022/07/06 01:17:22;;;;;;;1.85;1.42;;;;;;;;;;4997308;28;20212;-83
2022/07/06 01:19:49;;;;;;;1.63;1.52;;;;;;;;;;4997027;28;20625;-83
2022/07/06 01:22:18;;;;;;;1.83;1.42;;;;;;;;;;4996439;28;20211;-82
2022/07/06 01:24:45;;;;;;;2.33;1.42;;;;;;;;;;5007283;28;20238;-82
2022/07/06 01:27:12;;;;;;;2.95;1.73;;;;;;;;;;5015587;28;20551;-83
2022/07/06 01:29:39;;;;;;;1.80;1.70;;;;;;;;;;5015421;28;20238;-82
2022/07/06 01:32:07;;;;;;;1.33;1.23;;;;;;;;;;5016245;28;20203;-82
2022/07/06 01:34:34;;;;;;;1.50;1.40;;;;;;;;;;5015267;28;20246;-83
2022/07/06 01:37:01;;;;;;;2.40;1.60;;;;;;;;;;5015973;28;20577;-82
2022/07/06 01:39:30;;;;;;;4.78;1.55;;;;;;;;;;5016154;28;20239;-82
2022/07/06 01:41:57;;;;;;;1.40;1.23;;;;;;;;;;5016301;28;20235;-83
2022/07/06 01:44:24;;;;;;;1.73;1.63;;;;;;;;;;5016119;28;20243;-82
2022/07/06 01:46:51;;;;;;;3.30;1.55;;;;;;;;;;5016480;28;20216;-83
2022/07/06 01:49:18;;;;;;;1.50;1.40;;;;;;;;;;5015841;28;20242;-82
2022/07/06 01:51:46;;;;;;;1.75;1.65;;;;;;;;;;5016905;28;20204;-83
2022/07/06 01:54:13;;;;;;;2.33;1.77;;;;;;;;;;5017117;28;20322;-82
2022/07/06 01:56:41;;;;;;;1.73;1.60;;;;;;;;;;5016269;28;20218;-81
2022/07/06 01:59:09;;;;;;;1.70;1.60;;;;;;;;;;5015993;28;20241;-82
2022/07/06 02:01:36;;;;;;;1.77;1.65;;;;;;;;;;5000272;28;20228;-81
2022/07/06 02:04:03;;;;;;;1.98;1.73;;;;;;;;;;4997214;28;20259;-82
2022/07/06 02:06:30;;;;;;;1.63;1.52;;;;;;;;;;4997477;28;20204;-83
2022/07/06 02:08:57;;;;;;;1.77;1.65;;;;;;;;;;4997535;28;20654;-83
2022/07/06 02:11:25;;;;;;;1.70;1.60;;;;;;;;;;4997686;28;20210;-82
2022/07/06 02:13:53;;;;;;;1.70;1.55;;;;;;;;;;4997376;28;20243;-83
2022/07/06 02:16:20;;;;;;;1.50;1.40;;;;;;;;;;4998046;28;20204;-82
2022/07/06 02:18:47;;;;;;;1.83;1.70;;;;;;;;;;4997936;28;20238;-82
2022/07/06 02:21:14;;;;;;;2.03;1.77;;;;;;;;;;4997338;28;20240;-82
2022/07/06 02:23:41;;;;;;;2.60;1.60;;;;;;;;;;4997367;28;20244;-83
2022/07/06 02:26:08;;;;;;;1.77;1.67;;;;;;;;;;4997951;28;20235;-83
2022/07/06 02:28:36;;;;;;;2.00;1.67;;;;;;;;;;4998397;28;20243;-82
2022/07/06 02:31:04;;;;;;;1.67;1.53;;;;;;;;;;5002272;28;20204;-82
2022/07/06 02:33:31;;;;;;;1.77;1.60;;;;;;;;;;4999975;28;20239;-82
2022/07/06 02:35:58;;;;;;;1.60;1.50;;;;;;;;;;5000219;28;20203;-82
2022/07/06 02:38:26;;;;;;;2.07;1.70;;;;;;;;;;5000063;28;20231;-82
2022/07/06 02:40:53;;;;;;;1.60;1.50;;;;;;;;;;4999902;28;20727;-82
2022/07/06 02:43:20;;;;;;;2.05;1.83;;;;;;;;;;5000897;28;20254;-83
2022/07/06 02:45:47;;;;;;;2.85;1.70;;;;;;;;;;5001532;28;20212;-82
2022/07/06 02:48:15;;;;;;;3.23;2.10;;;;;;;;;;5000710;28;20303;-83
2022/07/06 02:50:42;;;;;;;2.27;2.07;;;;;;;;;;5001751;28;20671;-82
2022/07/06 02:53:09;;;;;;;2.93;1.70;;;;;;;;;;5001295;28;20228;-83
2022/07/06 02:55:36;;;;;;;2.33;2.13;;;;;;;;;;5003354;28;20219;-83
2022/07/06 02:58:03;;;;;;;2.10;1.90;;;;;;;;;;5001927;28;20567;-82
2022/07/06 03:00:30;;;;;;;1.90;1.80;;;;;;;;;;5000916;28;20204;-82
2022/07/06 03:02:58;;;;;;;2.23;2.00;;;;;;;;;;5009642;28;20231;-83
2022/07/06 03:05:26;;;;;;;2.73;2.30;;;;;;;;;;4998853;28;20231;-82
2022/07/06 03:07:53;;;;;;;2.63;1.80;;;;;;;;;;4997185;28;20208;-82
2022/07/06 03:10:20;;;;;;;3.43;1.73;;;;;;;;;;4996441;28;20247;-81
2022/07/06 03:12:47;;;;;;;3.33;2.10;;;;;;;;;;4996624;28;20208;-82
2022/07/06 03:15:14;;;;;;;2.40;2.20;;;;;;;;;;5064187;22;20229;-84
2022/07/06 03:17:41;;;;;;;1.90;1.80;;;;;;;;;;5054551;28;20225;-84
2022/07/06 03:20:09;;;;;;;3.70;2.20;;;;;;;;;;5054659;28;20736;-84
2022/07/06 03:22:37;;;;;;;3.30;2.07;;;;;;;;;;5056762;28;20232;-85
2022/07/06 03:25:04;;;;;;;4.73;2.30;;;;;;;;;;5055466;28;20641;-84
2022/07/06 03:27:32;;;;;;;3.87;2.33;;;;;;;;;;5056031;28;20206;-84
2022/07/06 03:29:59;;;;;;;3.47;2.00;;;;;;;;;;5053965;28;20245;-84
2022/07/06 03:32:26;;;;;;;4.00;2.00;;;;;;;;;;5054638;28;20201;-84
2022/07/06 03:34:53;;;;;;;5.50;2.00;;;;;;;;;;5053681;28;20258;-85
2022/07/06 03:37:20;;;;;;;3.60;2.07;;;;;;;;;;5054289;28;20214;-84
2022/07/06 03:39:48;;;;;;;5.33;2.03;;;;;;;;;;5053658;28;20241;-84
2022/07/06 03:42:15;;;;;;;3.60;1.90;;;;;;;;;;5054306;28;20271;-84
2022/07/06 03:44:42;;;;;;;4.00;1.97;;;;;;;;;;5053527;28;20264;-84
2022/07/06 03:47:09;;;;;;;3.87;1.90;;;;;;;;;;5054112;28;20205;-85
2022/07/06 03:49:36;;;;;;;3.93;2.33;;;;;;;;;;5053772;28;20234;-85
2022/07/06 03:52:04;;;;;;;1.90;1.80;;;;;;;;;;5054647;28;20206;-85
2022/07/06 03:54:31;;;;;;;2.13;1.97;;;;;;;;;;5054064;28;20237;-85
2022/07/06 03:56:59;;;;;;;2.23;1.90;;;;;;;;;;5054179;28;20213;-84
2022/07/06 03:59:26;;;;;;;1.97;1.87;;;;;;;;;;5053447;28;20234;-84
2022/07/06 04:01:53;;;;;;;2.77;1.97;;;;;;;;;;5053584;28;20570;-85
2022/07/06 04:04:20;;;;;;;6.47;2.17;;;;;;;;;;5053128;28;20714;-84
2022/07/06 04:06:47;;;;;;;2.43;2.10;;;;;;;;;;5053634;28;20701;-84
2022/07/06 04:09:14;;;;;;;2.27;1.80;;;;;;;;;;5053209;28;20324;-84
2022/07/06 04:11:41;;;;;;;3.07;1.80;;;;;;;;;;5053727;28;20209;-84
2022/07/06 04:14:10;;;;;;;3.27;1.80;;;;;;;;;;5052856;28;20245;-84
2022/07/06 04:16:37;;;;;;;2.00;1.80;;;;;;;;;;5053760;28;20217;-84
2022/07/06 04:19:04;;;;;;;3.53;2.10;;;;;;;;;;5053234;28;20247;-84
2022/07/06 04:21:31;;;;;;;1.70;1.60;;;;;;;;;;5053750;28;20573;-84
2022/07/06 04:23:58;;;;;;;3.20;1.50;;;;;;;;;;5052784;28;20241;-84
2022/07/06 04:26:25;;;;;;;1.63;1.53;;;;;;;;;;5053329;28;20206;-84
2022/07/06 04:28:52;;;;;;;1.90;1.80;;;;;;;;;;5052890;28;20308;-84
2022/07/06 04:31:20;;;;;;;3.23;1.80;;;;;;;;;;5053366;28;20691;-84
2022/07/06 04:33:47;;;;;;;1.83;1.60;;;;;;;;;;5053676;28;20234;-84
2022/07/06 04:36:14;;;;;;;2.03;1.80;;;;;;;;;;5054089;28;20210;-84
2022/07/06 04:38:42;;;;;;;4.37;2.00;;;;;;;;;;5053088;28;20230;-85
2022/07/06 04:41:09;;;;;;;1.83;1.73;;;;;;;;;;5053157;28;20205;-85
2022/07/06 04:43:36;;;;;;;1.80;1.70;;;;;;;;;;5052577;28;20237;-84
2022/07/06 04:46:03;;;;;;;2.40;1.90;;;;;;;;;;5053358;28;20213;-84
2022/07/06 04:48:32;;;;;;;4.07;1.70;;;;;;;;;;5053191;28;20241;-85
2022/07/06 04:50:59;;;;;;;3.27;1.70;;;;;;;;;;5052620;28;20217;-85
2022/07/06 04:53:26;;;;;;;2.30;2.10;;;;;;;;;;5052716;28;20240;-84
2022/07/06 04:55:53;;;;;;;6.27;2.00;;;;;;;;;;5053166;28;20682;-84
2022/07/06 04:58:20;;;;;;;1.50;1.40;;;;;;;;;;5052776;28;20249;-84
2022/07/06 05:00:47;;;;;;;2.93;2.10;;;;;;;;;;5052970;28;20209;-84
2022/07/06 05:03:14;;;;;;;3.43;1.70;;;;;;;;;;5052082;28;20760;-84
2022/07/06 05:05:42;;;;;;;4.00;1.80;;;;;;;;;;5053017;28;20233;-85
2022/07/06 05:08:09;;;;;;;4.07;2.10;;;;;;;;;;5052422;28;20237;-85
2022/07/06 05:10:36;;;;;;;2.53;1.60;;;;;;;;;;5052892;28;20727;-85
2022/07/06 05:13:03;;;;;;;2.43;2.03;;;;;;;;;;5052313;28;20252;-85
2022/07/06 05:15:30;;;;;;;3.40;1.77;;;;;;;;;;5052767;28;20287;-85
2022/07/06 05:17:57;;;;;;;2.37;1.93;;;;;;;;;;5052780;28;20271;-84
2022/07/06 05:20:24;;;;;;;4.10;1.97;;;;;;;;;;5052119;28;20238;-84
2022/07/06 05:22:52;;;;;;;1.97;1.83;;;;;;;;;;5052516;28;20701;-84
2022/07/06 05:25:20;;;;;;;2.27;2.07;;;;;;;;;;5052192;28;20268;-84
2022/07/06 05:27:47;;;;;;;2.20;1.97;;;;;;;;;;5052880;28;20206;-84
2022/07/06 05:30:15;;;;;;;3.37;2.20;;;;;;;;;;5052739;28;20237;-84
2022/07/06 05:32:42;;;;;;;3.37;1.80;;;;;;;;;;5052922;28;20207;-84
2022/07/06 05:35:09;;;;;;;2.57;1.77;;;;;;;;;;5051842;28;20246;-84
2022/07/06 05:37:36;;;;;;;2.67;1.90;;;;;;;;;;5052530;28;20202;-84
2022/07/06 05:40:05;;;;;;;3.97;1.97;;;;;;;;;;5051944;28;20652;-84
2022/07/06 05:42:32;;;;;;;1.80;1.70;;;;;;;;;;5052370;28;20230;-84
2022/07/06 05:44:59;;;;;;;3.43;2.10;;;;;;;;;;5051809;28;20302;-85
2022/07/06 05:50:14;;;;;;;1.97;1.83;;;;;;;;;;5052192;28;20252;-84
2022/07/06 05:52:41;;;;;;;2.00;1.70;;;;;;;;;;5052585;28;20271;-84
2022/07/06 05:55:10;;;;;;;2.07;1.87;;;;;;;;;;5051739;28;20705;-84
2022/07/06 05:57:37;;;;;;;2.40;2.10;;;;;;;;;;5052590;28;20806;-84
2022/07/06 06:00:05;;;;;;;1.97;1.63;;;;;;;;;;5051915;28;20241;-84
2022/07/06 06:02:38;;;;;;;1.80;1.70;;;;;;;;;;5051473;28;20226;-84
2022/07/06 06:05:05;;;;;;;1.60;1.50;;;;;;;;;;5051720;28;20320;-84
2022/07/06 06:07:34;;;;;;;4.50;1.63;;;;;;;;;;5052151;28;20202;-84
2022/07/06 06:10:01;;;;;;;2.15;1.65;;;;;;;;;;5051598;28;20234;-84
2022/07/06 06:12:29;;;;;;;3.43;1.40;;;;;;;;;;5051944;28;20213;-84
2022/07/06 06:14:56;;;;;;;1.98;1.70;;;;;;;;;;5051657;28;20610;-84
2022/07/06 06:17:23;;;;;;;2.67;1.33;;;;;;;;;;5052051;28;20202;-84
2022/07/06 06:19:50;;;;;;;3.22;1.33;;;;;;;;;;5051421;28;20657;-84
2022/07/06 06:22:17;;;;;;;1.48;1.38;;;;;;;;;;5051721;28;20233;-84
2022/07/06 06:24:44;;;;;;;3.05;1.88;;;;;;;;;;5051024;28;20245;-84
2022/07/06 06:27:11;;;;;;;1.80;1.40;;;;;;;;;;5052438;28;20202;-84
2022/07/06 06:29:41;;;;;;;1.48;1.38;;;;;;;;;;5051503;28;20238;-84
2022/07/06 06:32:08;;;;;;;2.35;1.63;;;;;;;;;;5051973;28;20233;-84
2022/07/06 06:34:35;;;;;;;2.20;1.30;;;;;;;;;;5051360;28;20675;-84
2022/07/06 06:37:02;;;;;;;2.90;1.25;;;;;;;;;;5052330;28;20206;-84
2022/07/06 06:39:29;;;;;;;1.63;1.40;;;;;;;;;;5051479;28;20264;-84
2022/07/06 06:41:56;;;;;;;1.52;1.42;;;;;;;;;;5054027;28;20222;-84
2022/07/06 06:44:24;;;;;;;1.25;1.13;;;;;;;;;;5051831;28;20245;-84
2022/07/06 06:46:52;;;;;;;4.45;1.70;;;;;;;;;;5051838;28;20206;-84
2022/07/06 06:49:20;;;;;;;1.80;1.30;;;;;;;;;;5051586;28;20257;-84
2022/07/06 06:51:47;;;;;;;1.70;1.13;;;;;;;;;;5052255;28;20208;-84
2022/07/06 06:54:14;;;;;;;2.33;1.40;;;;;;;;;;5051233;28;20609;-84
2022/07/06 06:56:41;;;;;;;1.63;1.35;;;;;;;;;;5051964;28;20202;-84
2022/07/06 06:59:08;;;;;;;1.95;1.40;;;;;;;;;;5051781;28;20249;-85
2022/07/06 07:01:35;;;;;;;2.45;1.50;;;;;;;;;;5052008;28;20206;-85
2022/07/06 07:04:03;;;;;;;1.48;1.38;;;;;;;;;;5058512;28;20222;-83
2022/07/06 07:06:30;;;;;;;3.88;1.40;;;;;;;;;;5071443;28;20206;-84
2022/07/06 07:08:57;;;;;;;3.80;1.00;;;;;;;;;;5069667;28;20234;-84
2022/07/06 07:11:24;;;;;;;1.90;1.02;;;;;;;;;;5070365;28;20218;-84
2022/07/06 07:13:51;;;;;;;2.40;1.52;;;;;;;;;;5061515;28;20234;-84
2022/07/06 07:16:18;;;;;;;4.35;1.73;;;;;;;;;;5055750;28;20221;-84
2022/07/06 07:18:45;;;;;;;2.67;1.30;;;;;;;;;;5054886;28;20229;-84
2022/07/06 07:21:14;;;;;;;1.27;1.17;;;;;;;;;;5055184;28;20213;-86
2022/07/06 07:23:41;;;;;;;1.67;1.58;;;;;;;;;;5054146;28;20237;-84
2022/07/06 07:26:08;;;;;;;4.20;1.52;;;;;;;;;;5054827;28;20658;-85
2022/07/06 07:28:35;;;;;;;4.40;1.40;;;;;;;;;;5054416;28;20701;-84
2022/07/06 07:31:02;;;;;;;1.75;1.40;;;;;;;;;;5054923;28;20210;-84
2022/07/06 07:33:29;;;;;;;1.98;1.73;;;;;;;;;;5054087;28;20229;-84
2022/07/06 07:35:57;;;;;;;3.90;1.50;;;;;;;;;;5054811;28;20221;-85
2022/07/06 07:38:25;;;;;;;2.75;1.73;;;;;;;;;;5054306;28;20234;-85
2022/07/06 07:40:54;;;;;;;2.35;1.70;;;;;;;;;;5054770;28;20206;-84
2022/07/06 07:43:21;;;;;;;3.60;2.10;;;;;;;;;;5059063;28;20620;-85
2022/07/06 07:45:49;;;;;;;1.83;1.73;;;;;;;;;;5054375;28;20216;-85
2022/07/06 07:48:16;;;;;;;2.50;1.65;;;;;;;;;;5054628;28;20214;-85
2022/07/06 07:50:43;;;;;;;2.25;1.77;;;;;;;;;;5055198;28;20566;-85
2022/07/06 07:53:10;;;;;;;2.70;1.60;;;;;;;;;;5053956;28;20700;-85
2022/07/06 07:55:38;;;;;;;4.32;1.80;;;;;;;;;;5054445;28;20226;-85
2022/07/06 07:58:05;;;;;;;3.25;1.55;;;;;;;;;;5053725;28;20214;-84
2022/07/06 08:00:33;;;;;;;2.17;1.80;;;;;;;;;;5054277;28;20905;-85
2022/07/06 08:03:00;;;;;;;3.15;1.80;;;;;;;;;;5053547;28;20273;-85
2022/07/06 08:05:27;;;;;;;2.03;1.90;;;;;;;;;;5053838;28;20229;-85
2022/07/06 08:07:54;;;;;;;2.10;1.67;;;;;;;;;;5054144;28;20206;-85
2022/07/06 08:10:21;;;;;;;4.22;3.67;;;;;;;;;;5053640;28;20744;-84
2022/07/06 08:12:50;;;;;;;1.90;1.60;;;;;;;;;;5054412;28;20198;-84
2022/07/06 08:15:17;;;;;;;2.22;1.65;;;;;;;;;;5053430;28;20249;-85
2022/07/06 08:17:44;;;;;;;2.42;1.77;;;;;;;;;;5053838;28;20228;-84
2022/07/06 08:20:12;;;;;;;2.83;2.00;;;;;;;;;;5053389;28;20714;-85
2022/07/06 08:22:39;;;;;;;3.15;1.90;;;;;;;;;;5054092;28;20263;-85
2022/07/06 08:25:07;;;;;;;2.45;1.48;;;;;;;;;;5052724;28;20246;-85
2022/07/06 08:27:34;;;;;;;1.85;1.60;;;;;;;;;;5053122;28;20261;-84
2022/07/06 08:30:02;;;;;;;2.25;1.80;;;;;;;;;;5053455;28;20681;-85
2022/07/06 08:32:29;;;;;;;3.22;2.13;;;;;;;;;;5053872;28;20202;-85
2022/07/06 08:34:56;;;;;;;3.67;1.70;;;;;;;;;;5052906;28;20783;-85
2022/07/06 08:37:23;;;;;;;2.95;2.20;;;;;;;;;;5053659;28;20202;-85
2022/07/06 08:39:50;;;;;;;2.78;1.48;;;;;;;;;;5053369;28;20229;-84
2022/07/06 08:42:18;;;;;;;4.43;1.60;;;;;;;;;;5053559;28;20623;-85
2022/07/06 08:44:45;;;;;;;2.55;1.80;;;;;;;;;;5056570;28;20445;-85
2022/07/06 08:47:14;;;;;;;2.20;1.75;;;;;;;;;;5060132;28;20213;-85
2022/07/06 08:49:41;;;;;;;2.47;1.73;;;;;;;;;;5056858;28;20774;-85
2022/07/06 08:52:09;;;;;;;1.70;1.60;;;;;;;;;;5055018;28;20217;-84
2022/07/06 08:54:36;;;;;;;2.35;2.00;;;;;;;;;;5052598;28;20245;-85
2022/07/06 08:57:04;;;;;;;2.15;1.80;;;;;;;;;;5053527;28;20222;-85
2022/07/06 08:59:31;;;;;;;1.95;1.70;;;;;;;;;;5052827;28;20234;-85
2022/07/06 09:02:00;;;;;;;1.63;1.45;;;;;;;;;;5053359;28;20279;-85
2022/07/06 09:04:28;;;;;;;2.90;1.90;;;;;;;;;;5052347;28;20242;-84
2022/07/06 09:06:55;;;;;;;2.88;2.47;;;;;;;;;;5053041;28;20658;-84
2022/07/06 09:09:24;;;;;;;1.73;1.63;;;;;;;;;;5052523;28;20238;-84
2022/07/06 09:11:52;;;;;;;3.25;1.50;;;;;;;;;;5052883;28;20202;-84
2022/07/06 09:14:19;;;;;;;3.38;1.90;;;;;;;;;;5052221;28;20240;-84
2022/07/06 09:16:46;;;;;;;2.60;1.80;;;;;;;;;;5098091;22;20229;-83
2022/07/06 09:19:15;;;;;;;4.03;1.85;;;;;;;;;;5070498;28;20243;-82
2022/07/06 09:21:43;;;;;;;3.78;1.80;;;;;;;;;;5075882;28;20205;-82
2022/07/06 09:24:11;;;;;;;1.60;1.50;;;;;;;;;;5076223;28;20263;-83
2022/07/06 09:26:39;;;;;;;3.88;1.75;;;;;;;;;;5076603;28;20225;-83
2022/07/06 09:29:07;;;;;;;1.88;1.70;;;;;;;;;;5076429;28;20260;-83
2022/07/06 09:31:34;;;;;;;3.15;1.70;;;;;;;;;;5076149;28;20204;-82
2022/07/06 09:34:05;;;;;;;2.00;1.55;;;;;;;;;;5076875;28;20236;-83
2022/07/06 09:36:42;;;;;;;2.60;1.50;;;;;;;;;;5078872;28;20228;-84
2022/07/06 09:39:20;;;;;;;1.73;1.63;;;;;;;;;;5077362;28;20233;-83
2022/07/06 09:41:48;;;;;;;3.28;1.80;;;;;;;;;;5076426;28;20206;-83
2022/07/06 09:44:20;;;;;;;1.73;1.63;;;;;;;;;;5075633;28;20294;-83
2022/07/06 09:46:48;;;;;;;3.40;2.13;;;;;;;;;;5076941;28;20225;-83
2022/07/06 09:49:18;;;;;;;5.00;1.92;;;;;;;;;;5075656;28;20253;-80
2022/07/06 09:51:46;;;;;;;3.38;2.55;;;;;;;;;;5076470;28;20567;-80
2022/07/06 09:54:13;;;;;;;1.98;1.77;;;;;;;;;;5074689;28;20257;-80
2022/07/06 09:56:43;;;;;;;3.67;2.28;;;;;;;;;;5075631;28;20225;-80
2022/07/06 09:59:10;;;;;;;4.47;1.83;;;;;;;;;;5073549;28;20237;-80
2022/07/06 10:01:37;;;;;;;4.63;2.30;;;;;;;;;;5056477;28;20213;-80
2022/07/06 10:04:04;;;;;;;4.25;1.95;;;;;;;;;;5052122;28;20245;-80
2022/07/06 10:06:31;;;;;;;3.08;1.88;;;;;;;;;;5051963;28;20226;-82
2022/07/06 10:08:59;;;;;;;2.83;1.77;;;;;;;;;;5052470;28;20241;-81
2022/07/06 10:11:27;;;;;;;2.80;1.92;;;;;;;;;;5053239;28;20716;-81
2022/07/06 10:13:56;;;;;;;3.03;1.98;;;;;;;;;;5056922;28;20238;-81
2022/07/06 10:16:24;;;;;;;2.67;1.95;;;;;;;;;;5052275;28;20712;-82
2022/07/06 10:18:53;;;;;;;1.77;1.60;;;;;;;;;;5051872;28;20253;-81
2022/07/06 10:21:20;;;;;;;2.63;1.95;;;;;;;;;;5052308;28;20222;-82
2022/07/06 10:23:48;;;;;;;2.13;1.70;;;;;;;;;;5052085;28;20237;-81
2022/07/06 10:26:15;;;;;;;4.90;1.73;;;;;;;;;;5052903;28;20655;-80
2022/07/06 10:28:43;;;;;;;2.22;1.58;;;;;;;;;;5052248;28;20240;-81
2022/07/06 10:31:11;;;;;;;2.00;1.73;;;;;;;;;;5052667;28;20205;-81
2022/07/06 10:33:39;;;;;;;3.22;1.77;;;;;;;;;;5052098;28;20226;-81
2022/07/06 10:36:07;;;;;;;3.17;1.60;;;;;;;;;;5051894;28;20245;-81
2022/07/06 10:38:35;;;;;;;3.35;2.20;;;;;;;;;;5052096;28;20237;-81
2022/07/06 10:41:04;;;;;;;1.48;1.38;;;;;;;;;;5060744;28;20214;-80
2022/07/06 10:43:37;;;;;;;3.05;1.40;;;;;;;;;;5064913;28;20241;-81
2022/07/06 10:46:08;;;;;;;2.00;1.70;;;;;;;;;;5065135;28;20288;-82
2022/07/06 10:48:40;;;;;;;2.85;1.73;;;;;;;;;;5065056;28;20238;-83
2022/07/06 10:51:08;;;;;;;2.67;1.85;;;;;;;;;;5068537;28;20227;-84
2022/07/06 10:53:37;;;;;;;2.60;1.75;;;;;;;;;;5065510;28;20230;-84
2022/07/06 10:56:06;;;;;;;1.92;1.40;;;;;;;;;;5057749;28;20710;-85
2022/07/06 10:58:36;;;;;;;1.33;1.08;;;;;;;;;;5056140;28;20230;-85
2022/07/06 11:01:05;;;;;;;2.83;1.40;;;;;;;;;;5056181;28;20206;-85
2022/07/06 11:03:44;;;;;;;2.58;1.70;;;;;;;;;;5055982;28;20230;-85
2022/07/06 11:06:13;;;;;;;2.40;1.42;;;;;;;;;;5056448;28;20225;-85
2022/07/06 11:09:01;;;;;;;2.30;1.67;;;;;;;;;;5058008;28;20230;-83
2022/07/06 11:11:40;;;;;;;1.27;1.27;;;;;;;;;;5067298;28;20213;-82
2022/07/06 11:14:08;;;;;;;1.60;1.38;;;;;;;;;;5071092;28;20237;-83
2022/07/06 11:16:37;;;;;;;1.20;1.10;;;;;;;;;;5071451;28;20238;-85
2022/07/06 11:19:07;;;;;;;1.95;1.40;;;;;;;;;;5071767;28;20269;-85
2022/07/06 11:21:42;;;;;;;2.00;1.35;;;;;;;;;;5071001;28;20225;-84
2022/07/06 11:24:10;;;;;;;2.47;1.20;;;;;;;;;;5070567;28;20233;-84
2022/07/06 11:26:37;;;;;;;1.70;1.30;;;;;;;;;;5071997;28;20234;-87
2022/07/06 11:29:05;;;;;;;2.17;1.30;;;;;;;;;;5072022;28;20237;-83
2022/07/06 11:31:32;;;;;;;4.03;1.52;;;;;;;;;;5064340;28;20206;-83
2022/07/06 11:33:59;;;;;;;1.42;1.30;;;;;;;;;;5061891;28;20241;-86
2022/07/06 11:36:27;;;;;;;2.30;1.23;;;;;;;;;;5061951;28;20230;-79
2022/07/06 11:38:54;;;;;;;1.63;1.20;;;;;;;;;;5058095;28;20612;-80
2022/07/06 11:41:21;;;;;;;0.93;0.93;;;;;;;;;;5057468;28;20213;-85
2022/07/06 11:43:51;;;;;;;1.48;1.20;;;;;;;;;;5061938;28;20244;-82
2022/07/06 11:46:22;;;;;;;2.17;1.20;;;;;;;;;;5063154;28;20232;-82
2022/07/06 11:48:49;;;;;;;1.05;0.95;;;;;;;;;;5062021;28;20233;-83
2022/07/06 11:51:16;;;;;;;2.85;1.15;;;;;;;;;;5062815;28;20221;-82
2022/07/06 11:53:46;;;;;;;1.17;1.08;;;;;;;;;;5060670;28;20234;-81
2022/07/06 11:56:13;;;;;;;4.38;1.23;;;;;;;;;;5062249;28;20256;-81
2022/07/06 11:58:42;;;;;;;1.63;0.80;;;;;;;;;;5060670;28;20229;-81
2022/07/06 12:01:10;;;;;;;2.00;1.30;;;;;;;;;;5062580;28;20273;-82
2022/07/06 12:03:37;;;;;;;2.28;1.10;;;;;;;;;;5062067;28;20242;-82
2022/07/06 12:06:04;;;;;;;2.25;1.00;;;;;;;;;;5059171;28;20602;-79
2022/07/06 12:08:33;;;;;;;2.42;1.02;;;;;;;;;;5056471;28;20230;-79
2022/07/06 12:11:02;;;;;;;1.05;1.00;;;;;;;;;;5056979;28;20216;-80
2022/07/06 12:13:38;;;;;;;1.08;0.98;;;;;;;;;;5055044;28;20234;-81
2022/07/06 12:16:10;;;;;;;2.22;1.10;;;;;;;;;;5054880;28;20691;-83
2022/07/06 12:18:38;;;;;;;0.93;0.93;;;;;;;;;;5056918;28;20303;-84
2022/07/06 12:21:05;;;;;;;1.30;0.93;;;;;;;;;;5058822;28;20591;-83
2022/07/06 12:23:39;;;;;;;2.17;1.02;;;;;;;;;;5057369;28;20230;-83
2022/07/06 12:26:08;;;;;;;0.88;0.80;;;;;;;;;;5055964;28;20233;-82
2022/07/06 12:28:35;;;;;;;3.17;0.98;;;;;;;;;;5054784;28;20230;-82
2022/07/06 12:31:02;;;;;;;2.67;1.35;;;;;;;;;;5054502;28;20689;-82
2022/07/06 12:33:30;;;;;;;4.25;1.10;;;;;;;;;;5060432;28;20280;-80
2022/07/06 12:35:58;;;;;;;2.60;0.85;;;;;;;;;;5061193;28;20230;-81
2022/07/06 12:38:25;;;;;;;0.70;0.70;;;;;;;;;;5061352;28;20230;-83
2022/07/06 12:40:52;;;;;;;2.13;1.08;;;;;;;;;;5061556;28;20269;-80
2022/07/06 12:43:40;;;;;;;1.30;1.10;;;;;;;;;;5060315;28;20260;-80
2022/07/06 12:46:25;;;;;;;2.00;1.00;;;;;;;;;;5056344;28;20283;-83
2022/07/06 12:48:52;;;;;;;1.58;1.02;;;;;;;;;;5053521;28;20241;-83
2022/07/06 12:51:19;;;;;;;1.20;1.10;;;;;;;;;;5054225;28;20719;-83
2022/07/06 12:53:46;;;;;;;1.20;1.05;;;;;;;;;;5054791;28;20232;-83
2022/07/06 12:56:14;;;;;;;1.10;1.10;;;;;;;;;;5063681;28;20229;-83
2022/07/06 12:58:55;;;;;;;1.20;1.10;;;;;;;;;;5071545;28;20313;-83
2022/07/06 13:01:22;;;;;;;1.48;0.90;;;;;;;;;;5090629;28;20197;-82
2022/07/06 13:03:54;;;;;;;1.55;1.00;;;;;;;;;;5095346;28;20217;-83
2022/07/06 13:06:28;;;;;;;0.82;0.82;;;;;;;;;;5081275;28;20225;-82
2022/07/06 13:08:55;;;;;;;0.90;0.90;;;;;;;;;;5074808;28;20233;-83
2022/07/06 13:11:22;;;;;;;1.85;0.82;;;;;;;;;;5074642;28;20228;-83
2022/07/06 13:13:50;;;;;;;2.40;0.90;;;;;;;;;;5074200;28;20282;-83
2022/07/06 13:16:17;;;;;;;1.20;0.98;;;;;;;;;;5073660;28;20244;-83
2022/07/06 13:18:44;;;;;;;2.47;0.90;;;;;;;;;;5072706;28;20229;-83
2022/07/06 13:21:12;;;;;;;1.20;1.10;;;;;;;;;;5073123;28;20669;-83
2022/07/06 13:23:39;;;;;;;2.08;1.00;;;;;;;;;;5073296;28;20770;-82
2022/07/06 13:26:06;;;;;;;1.00;0.90;;;;;;;;;;5072821;28;20232;-83
2022/07/06 13:28:33;;;;;;;0.80;0.73;;;;;;;;;;5073021;28;20225;-83
2022/07/06 13:31:01;;;;;;;0.80;0.80;;;;;;;;;;5073393;28;20213;-83
2022/07/06 13:33:28;;;;;;;1.52;0.75;;;;;;;;;;5073315;28;20233;-83
2022/07/06 13:35:55;;;;;;;1.02;0.98;;;;;;;;;;5072775;28;20610;-83
2022/07/06 13:38:22;;;;;;;2.78;1.13;;;;;;;;;;5073024;28;20225;-83
2022/07/06 13:40:49;;;;;;;4.55;1.05;;;;;;;;;;5075273;28;20228;-83
2022/07/06 13:43:16;;;;;;;0.88;0.88;;;;;;;;;;5078550;28;20201;-83
2022/07/06 13:45:43;;;;;;;1.75;0.70;;;;;;;;;;5073001;28;20232;-84
2022/07/06 13:48:12;;;;;;;1.02;0.75;;;;;;;;;;5072764;28;20201;-85
2022/07/06 13:50:39;;;;;;;1.05;0.82;;;;;;;;;;5072461;28;20212;-84
2022/07/06 13:53:06;;;;;;;1.08;0.88;;;;;;;;;;5073429;28;20270;-84
2022/07/06 13:55:34;;;;;;;2.90;1.00;;;;;;;;;;5072809;28;20221;-84
2022/07/06 13:58:01;;;;;;;2.50;0.80;;;;;;;;;;5075288;28;20217;-84
2022/07/06 14:00:28;;;;;;;0.73;0.73;;;;;;;;;;5065741;28;20211;-84
2022/07/06 14:02:55;;;;;;;1.63;0.88;;;;;;;;;;5052634;28;20690;-83
2022/07/06 14:05:23;;;;;;;2.78;0.80;;;;;;;;;;5051845;28;20237;-84
2022/07/06 14:07:50;;;;;;;1.05;0.90;;;;;;;;;;5053182;28;20241;-83
2022/07/06 14:10:17;;;;;;;2.85;0.90;;;;;;;;;;5057504;28;20233;-84
2022/07/06 14:12:44;;;;;;;1.13;1.00;;;;;;;;;;5056696;28;20206;-82
2022/07/06 14:15:11;;;;;;;1.17;0.70;;;;;;;;;;5052402;28;20257;-83
2022/07/06 14:17:39;;;;;;;1.45;1.05;;;;;;;;;;5053999;28;20190;-83
2022/07/06 14:20:06;;;;;;;1.75;0.80;;;;;;;;;;5051750;28;20260;-84
2022/07/06 14:22:35;;;;;;;0.70;0.70;;;;;;;;;;5052316;28;20595;-84
2022/07/06 14:25:02;;;;;;;1.20;1.10;;;;;;;;;;5056621;28;20634;-83
2022/07/06 14:27:29;;;;;;;0.55;0.55;;;;;;;;;;5057396;28;20209;-84
2022/07/06 14:29:56;;;;;;;2.30;0.90;;;;;;;;;;5055714;28;20237;-84
2022/07/06 14:32:23;;;;;;;2.42;0.82;;;;;;;;;;5056807;28;20206;-84
2022/07/06 14:34:50;;;;;;;0.95;0.90;;;;;;;;;;5055499;28;20252;-86
2022/07/06 14:37:17;;;;;;;1.10;0.77;;;;;;;;;;5056129;28;20670;-85
2022/07/06 14:39:46;;;;;;;2.05;0.90;;;;;;;;;;5056217;28;20241;-86
2022/07/06 14:42:13;;;;;;;1.08;0.80;;;;;;;;;;5056500;28;20579;-85
2022/07/06 14:44:40;;;;;;;2.45;1.10;;;;;;;;;;5056634;28;20344;-84
2022/07/06 14:47:07;;;;;;;2.08;1.15;;;;;;;;;;5056426;28;20230;-86
2022/07/06 14:49:34;;;;;;;1.63;0.88;;;;;;;;;;5055960;28;20686;-83